sensor_id;sensor_type;location;lat;lon;timestamp;temperature;humidity
9215;DHT22;4642;51.364;6.788;2023-12-20T00:01:37;7.90;99.90
9215;DHT22;4642;51.364;6.788;2023-12-20T00:04:03;7.90;99.90
9215;DHT22;4642;51.364;6.788;2023-12-20T00:06:29;7.90;99.90
9215;DHT22;4642;51.364;6.788;2023-12-20T00:08:55;7.90;99.90
9215;DHT22;4642;51.364;6.788;2023-12-20T00:11:20;7.90;99.90
9215;DHT22;4642;51.364;6.788;2023-12-20T00:13:46;8.00;99.90
9215;DHT22;4642;51.364;6.788;2023-12-20T00:16:11;7.90;99.90
9215;DHT22;4642;51.364;6.788;2023-12-20T00:18:37;7.90;99.90
9215;DHT22;4642;51.364;6.788;2023-12-20T00:21:03;7.90;99.90
9215;DHT22;4642;51.364;6.788;2023-12-20T00:23:29;7.90;99.90
9215;DHT22;4642;51.364;6.788;2023-12-20T00:25:55;7.90;99.90
9215;DHT22;4642;51.364;6.788;2023-12-20T00:28:20;7.80;99.90
9215;DHT22;4642;51.364;6.788;2023-12-20T00:30:46;7.80;99.90
9215;DHT22;4642;51.364;6.788;2023-12-20T00:33:11;7.80;99.90
9215;DHT22;4642;51.364;6.788;2023-12-20T00:35:37;7.80;99.90
9215;DHT22;4642;51.364;6.788;2023-12-20T00:38:03;7.70;99.90
9215;DHT22;4642;51.364;6.788;2023-12-20T00:40:30;7.60;99.90
9215;DHT22;4642;51.364;6.788;2023-12-20T00:42:55;7.60;99.90
9215;DHT22;4642;51.364;6.788;2023-12-20T00:45:21;7.60;99.90
9215;DHT22;4642;51.364;6.788;2023-12-20T00:47:46;7.50;99.90
9215;DHT22;4642;51.364;6.788;2023-12-20T00:50:12;7.50;99.90
9215;DHT22;4642;51.364;6.788;2023-12-20T00:52:38;7.50;99.90
9215;DHT22;4642;51.364;6.788;2023-12-20T00:55:04;7.50;99.90
9215;DHT22;4642;51.364;6.788;2023-12-20T00:57:30;7.50;99.90
9215;DHT22;4642;51.364;6.788;2023-12-20T00:59:56;7.50;99.90
9215;DHT22;4642;51.364;6.788;2023-12-20T01:02:22;7.50;99.90
9215;DHT22;4642;51.364;6.788;2023-12-20T01:04:47;7.50;99.90
9215;DHT22;4642;51.364;6.788;2023-12-20T01:07:13;7.60;99.90
9215;DHT22;4642;51.364;6.788;2023-12-20T01:09:38;7.60;99.90
9215;DHT22;4642;51.364;6.788;2023-12-20T01:12:04;7.60;99.90
9215;DHT22;4642;51.364;6.788;2023-12-20T01:14:29;7.60;99.90
9215;DHT22;4642;51.364;6.788;2023-12-20T01:16:55;7.60;99.90
9215;DHT22;4642;51.364;6.788;2023-12-20T01:19:20;7.60;99.90
9215;DHT22;4642;51.364;6.788;2023-12-20T01:21:46;7.60;99.90
9215;DHT22;4642;51.364;6.788;2023-12-20T01:24:12;7.60;99.90
9215;DHT22;4642;51.364;6.788;2023-12-20T01:26:38;7.50;99.90
9215;DHT22;4642;51.364;6.788;2023-12-20T01:29:03;7.50;99.90
9215;DHT22;4642;51.364;6.788;2023-12-20T01:31:29;7.50;99.90
9215;DHT22;4642;51.364;6.788;2023-12-20T01:33:54;7.50;99.90
9215;DHT22;4642;51.364;6.788;2023-12-20T01:36:20;7.50;99.90
9215;DHT22;4642;51.364;6.788;2023-12-20T01:38:45;7.50;99.90
9215;DHT22;4642;51.364;6.788;2023-12-20T01:41:11;7.50;99.90
9215;DHT22;4642;51.364;6.788;2023-12-20T01:43:36;7.50;99.90
9215;DHT22;4642;51.364;6.788;2023-12-20T01:46:02;7.50;99.90
9215;DHT22;4642;51.364;6.788;2023-12-20T01:48:28;7.50;99.90
9215;DHT22;4642;51.364;6.788;2023-12-20T01:50:54;7.40;99.90
9215;DHT22;4642;51.364;6.788;2023-12-20T01:53:21;7.40;99.90
9215;DHT22;4642;51.364;6.788;2023-12-20T01:55:50;7.40;99.90
9215;DHT22;4642;51.364;6.788;2023-12-20T01:58:17;7.30;99.90
9215;DHT22;4642;51.364;6.788;2023-12-20T02:00:44;7.30;99.90
9215;DHT22;4642;51.364;6.788;2023-12-20T02:03:10;7.30;99.90
9215;DHT22;4642;51.364;6.788;2023-12-20T02:05:38;7.20;99.90
9215;DHT22;4642;51.364;6.788;2023-12-20T02:08:04;7.20;99.90
9215;DHT22;4642;51.364;6.788;2023-12-20T02:10:31;7.10;99.90
9215;DHT22;4642;51.364;6.788;2023-12-20T02:12:56;7.10;99.90
9215;DHT22;4642;51.364;6.788;2023-12-20T02:15:22;7.10;99.90
9215;DHT22;4642;51.364;6.788;2023-12-20T02:17:48;7.00;99.90
9215;DHT22;4642;51.364;6.788;2023-12-20T02:20:14;7.00;99.90
9215;DHT22;4642;51.364;6.788;2023-12-20T02:22:40;7.00;99.90
9215;DHT22;4642;51.364;6.788;2023-12-20T02:25:05;7.00;99.90
9215;DHT22;4642;51.364;6.788;2023-12-20T02:27:31;7.00;99.90
9215;DHT22;4642;51.364;6.788;2023-12-20T02:29:57;6.90;99.90
9215;DHT22;4642;51.364;6.788;2023-12-20T02:32:24;6.90;99.90
9215;DHT22;4642;51.364;6.788;2023-12-20T02:34:51;6.90;99.90
9215;DHT22;4642;51.364;6.788;2023-12-20T02:37:17;6.90;99.90
9215;DHT22;4642;51.364;6.788;2023-12-20T02:39:42;6.80;99.90
9215;DHT22;4642;51.364;6.788;2023-12-20T02:42:08;6.80;99.90
9215;DHT22;4642;51.364;6.788;2023-12-20T02:44:33;6.80;99.90
9215;DHT22;4642;51.364;6.788;2023-12-20T02:46:59;6.80;99.90
9215;DHT22;4642;51.364;6.788;2023-12-20T02:49:24;6.80;99.90
9215;DHT22;4642;51.364;6.788;2023-12-20T02:51:50;6.80;99.90
9215;DHT22;4642;51.364;6.788;2023-12-20T02:54:16;6.80;99.90
9215;DHT22;4642;51.364;6.788;2023-12-20T02:56:41;6.70;99.90
9215;DHT22;4642;51.364;6.788;2023-12-20T02:59:07;6.70;99.90
9215;DHT22;4642;51.364;6.788;2023-12-20T03:01:34;6.60;99.90
9215;DHT22;4642;51.364;6.788;2023-12-20T03:03:59;6.60;99.90
9215;DHT22;4642;51.364;6.788;2023-12-20T03:06:25;6.60;99.90
9215;DHT22;4642;51.364;6.788;2023-12-20T03:08:50;6.50;99.90
9215;DHT22;4642;51.364;6.788;2023-12-20T03:11:16;6.50;99.90
9215;DHT22;4642;51.364;6.788;2023-12-20T03:13:41;6.50;99.90
9215;DHT22;4642;51.364;6.788;2023-12-20T03:16:13;6.50;99.90
9215;DHT22;4642;51.364;6.788;2023-12-20T03:18:39;6.50;99.90
9215;DHT22;4642;51.364;6.788;2023-12-20T03:21:05;6.50;99.90
9215;DHT22;4642;51.364;6.788;2023-12-20T03:23:31;6.50;99.90
9215;DHT22;4642;51.364;6.788;2023-12-20T03:25:58;6.50;99.90
9215;DHT22;4642;51.364;6.788;2023-12-20T03:28:24;6.50;99.90
9215;DHT22;4642;51.364;6.788;2023-12-20T03:30:49;6.50;99.90
9215;DHT22;4642;51.364;6.788;2023-12-20T03:33:15;6.50;99.90
9215;DHT22;4642;51.364;6.788;2023-12-20T03:35:41;6.50;99.90
9215;DHT22;4642;51.364;6.788;2023-12-20T03:38:06;6.50;99.90
9215;DHT22;4642;51.364;6.788;2023-12-20T03:40:32;6.50;99.90
9215;DHT22;4642;51.364;6.788;2023-12-20T03:42:58;6.40;99.90
9215;DHT22;4642;51.364;6.788;2023-12-20T03:45:23;6.50;99.90
9215;DHT22;4642;51.364;6.788;2023-12-20T03:47:49;6.50;99.90
9215;DHT22;4642;51.364;6.788;2023-12-20T03:50:15;6.40;99.90
9215;DHT22;4642;51.364;6.788;2023-12-20T03:52:40;6.40;99.90
9215;DHT22;4642;51.364;6.788;2023-12-20T03:55:06;6.40;99.90
9215;DHT22;4642;51.364;6.788;2023-12-20T03:57:31;6.40;99.90
9215;DHT22;4642;51.364;6.788;2023-12-20T03:59:57;6.40;99.90
9215;DHT22;4642;51.364;6.788;2023-12-20T04:02:22;6.40;99.90
9215;DHT22;4642;51.364;6.788;2023-12-20T04:04:48;6.30;99.90
9215;DHT22;4642;51.364;6.788;2023-12-20T04:07:13;6.30;99.90
9215;DHT22;4642;51.364;6.788;2023-12-20T04:09:40;6.30;99.90
9215;DHT22;4642;51.364;6.788;2023-12-20T04:12:06;6.20;99.90
9215;DHT22;4642;51.364;6.788;2023-12-20T04:14:32;6.20;99.90
9215;DHT22;4642;51.364;6.788;2023-12-20T04:16:58;6.20;99.90
9215;DHT22;4642;51.364;6.788;2023-12-20T04:19:23;6.20;99.90
9215;DHT22;4642;51.364;6.788;2023-12-20T04:21:49;6.10;99.90
9215;DHT22;4642;51.364;6.788;2023-12-20T04:24:14;6.10;99.90
9215;DHT22;4642;51.364;6.788;2023-12-20T04:26:40;6.10;99.90
9215;DHT22;4642;51.364;6.788;2023-12-20T04:29:05;6.10;99.90
9215;DHT22;4642;51.364;6.788;2023-12-20T04:31:31;6.10;99.90
9215;DHT22;4642;51.364;6.788;2023-12-20T04:33:56;6.10;99.90
9215;DHT22;4642;51.364;6.788;2023-12-20T04:36:22;6.10;99.90
9215;DHT22;4642;51.364;6.788;2023-12-20T04:38:47;6.10;99.90
9215;DHT22;4642;51.364;6.788;2023-12-20T04:41:13;6.00;99.90
9215;DHT22;4642;51.364;6.788;2023-12-20T04:43:41;6.10;99.90
9215;DHT22;4642;51.364;6.788;2023-12-20T04:46:06;6.00;99.90
9215;DHT22;4642;51.364;6.788;2023-12-20T04:48:32;6.10;99.90
9215;DHT22;4642;51.364;6.788;2023-12-20T04:50:57;6.00;99.90
9215;DHT22;4642;51.364;6.788;2023-12-20T04:53:23;6.00;99.90
9215;DHT22;4642;51.364;6.788;2023-12-20T04:55:48;6.00;99.90
9215;DHT22;4642;51.364;6.788;2023-12-20T04:58:14;6.10;99.90
9215;DHT22;4642;51.364;6.788;2023-12-20T05:00:39;6.10;99.90
9215;DHT22;4642;51.364;6.788;2023-12-20T05:03:05;6.10;99.90
9215;DHT22;4642;51.364;6.788;2023-12-20T05:05:31;6.00;99.90
9215;DHT22;4642;51.364;6.788;2023-12-20T05:07:57;6.00;99.90
9215;DHT22;4642;51.364;6.788;2023-12-20T05:10:22;6.00;99.90
9215;DHT22;4642;51.364;6.788;2023-12-20T05:12:48;5.90;99.90
9215;DHT22;4642;51.364;6.788;2023-12-20T05:15:13;6.00;99.90
9215;DHT22;4642;51.364;6.788;2023-12-20T05:17:39;5.90;99.90
9215;DHT22;4642;51.364;6.788;2023-12-20T05:20:05;5.90;99.90
9215;DHT22;4642;51.364;6.788;2023-12-20T05:22:31;5.90;99.90
9215;DHT22;4642;51.364;6.788;2023-12-20T05:24:56;5.90;99.90
9215;DHT22;4642;51.364;6.788;2023-12-20T05:27:22;6.00;99.90
9215;DHT22;4642;51.364;6.788;2023-12-20T05:29:47;5.90;99.90
9215;DHT22;4642;51.364;6.788;2023-12-20T05:32:13;5.90;99.90
9215;DHT22;4642;51.364;6.788;2023-12-20T05:34:38;5.90;99.90
9215;DHT22;4642;51.364;6.788;2023-12-20T05:37:04;5.90;99.90
9215;DHT22;4642;51.364;6.788;2023-12-20T05:39:30;5.90;99.90
9215;DHT22;4642;51.364;6.788;2023-12-20T05:41:56;6.00;99.90
9215;DHT22;4642;51.364;6.788;2023-12-20T05:44:21;6.00;99.90
9215;DHT22;4642;51.364;6.788;2023-12-20T05:46:47;6.00;99.90
9215;DHT22;4642;51.364;6.788;2023-12-20T05:49:12;6.00;99.90
9215;DHT22;4642;51.364;6.788;2023-12-20T05:51:39;6.00;99.90
9215;DHT22;4642;51.364;6.788;2023-12-20T05:54:04;6.00;99.90
9215;DHT22;4642;51.364;6.788;2023-12-20T05:56:30;6.00;99.90
9215;DHT22;4642;51.364;6.788;2023-12-20T05:58:55;6.00;99.90
9215;DHT22;4642;51.364;6.788;2023-12-20T06:01:21;6.00;99.90
9215;DHT22;4642;51.364;6.788;2023-12-20T06:03:46;6.10;99.90
9215;DHT22;4642;51.364;6.788;2023-12-20T06:06:12;6.10;99.90
9215;DHT22;4642;51.364;6.788;2023-12-20T06:08:41;6.10;99.90
9215;DHT22;4642;51.364;6.788;2023-12-20T06:11:06;6.00;99.90
9215;DHT22;4642;51.364;6.788;2023-12-20T06:13:32;6.10;99.90
9215;DHT22;4642;51.364;6.788;2023-12-20T06:15:57;6.10;99.90
9215;DHT22;4642;51.364;6.788;2023-12-20T06:18:23;6.10;99.90
9215;DHT22;4642;51.364;6.788;2023-12-20T06:20:49;6.10;99.90
9215;DHT22;4642;51.364;6.788;2023-12-20T06:23:15;6.10;99.90
9215;DHT22;4642;51.364;6.788;2023-12-20T06:25:41;6.10;99.90
9215;DHT22;4642;51.364;6.788;2023-12-20T06:28:06;6.10;99.90
9215;DHT22;4642;51.364;6.788;2023-12-20T06:30:32;6.20;99.90
9215;DHT22;4642;51.364;6.788;2023-12-20T06:32:58;6.20;99.90
9215;DHT22;4642;51.364;6.788;2023-12-20T06:35:24;6.20;99.90
9215;DHT22;4642;51.364;6.788;2023-12-20T06:37:49;6.20;99.90
9215;DHT22;4642;51.364;6.788;2023-12-20T06:40:15;6.20;99.90
9215;DHT22;4642;51.364;6.788;2023-12-20T06:42:41;6.20;99.90
9215;DHT22;4642;51.364;6.788;2023-12-20T06:45:07;6.20;99.90
9215;DHT22;4642;51.364;6.788;2023-12-20T06:47:32;6.20;99.90
9215;DHT22;4642;51.364;6.788;2023-12-20T06:49:58;6.20;99.90
9215;DHT22;4642;51.364;6.788;2023-12-20T06:52:23;6.20;99.90
9215;DHT22;4642;51.364;6.788;2023-12-20T06:54:49;6.20;99.90
9215;DHT22;4642;51.364;6.788;2023-12-20T06:57:14;6.30;99.90
9215;DHT22;4642;51.364;6.788;2023-12-20T06:59:41;6.30;99.90
9215;DHT22;4642;51.364;6.788;2023-12-20T07:02:07;6.30;99.90
9215;DHT22;4642;51.364;6.788;2023-12-20T07:04:33;6.30;99.90
9215;DHT22;4642;51.364;6.788;2023-12-20T07:06:58;6.30;99.90
9215;DHT22;4642;51.364;6.788;2023-12-20T07:09:26;6.40;99.90
9215;DHT22;4642;51.364;6.788;2023-12-20T07:11:52;6.30;99.90
9215;DHT22;4642;51.364;6.788;2023-12-20T07:14:18;6.40;99.90
9215;DHT22;4642;51.364;6.788;2023-12-20T07:16:43;6.40;99.90
9215;DHT22;4642;51.364;6.788;2023-12-20T07:19:09;6.40;99.90
9215;DHT22;4642;51.364;6.788;2023-12-20T07:21:34;6.40;99.90
9215;DHT22;4642;51.364;6.788;2023-12-20T07:24:00;6.40;99.90
9215;DHT22;4642;51.364;6.788;2023-12-20T07:26:25;6.50;99.90
9215;DHT22;4642;51.364;6.788;2023-12-20T07:28:51;6.60;99.90
9215;DHT22;4642;51.364;6.788;2023-12-20T07:31:16;6.50;99.90
9215;DHT22;4642;51.364;6.788;2023-12-20T07:33:42;6.50;99.90
9215;DHT22;4642;51.364;6.788;2023-12-20T07:36:08;6.50;99.90
9215;DHT22;4642;51.364;6.788;2023-12-20T07:38:34;6.40;99.90
9215;DHT22;4642;51.364;6.788;2023-12-20T07:41:00;6.40;99.90
9215;DHT22;4642;51.364;6.788;2023-12-20T07:43:25;6.40;99.90
9215;DHT22;4642;51.364;6.788;2023-12-20T07:45:51;6.40;99.90
9215;DHT22;4642;51.364;6.788;2023-12-20T07:48:16;6.40;99.90
9215;DHT22;4642;51.364;6.788;2023-12-20T07:50:42;6.50;99.90
9215;DHT22;4642;51.364;6.788;2023-12-20T07:53:08;6.50;99.90
9215;DHT22;4642;51.364;6.788;2023-12-20T07:55:34;6.50;99.90
9215;DHT22;4642;51.364;6.788;2023-12-20T07:58:00;6.50;99.90
9215;DHT22;4642;51.364;6.788;2023-12-20T08:00:26;6.50;99.90
9215;DHT22;4642;51.364;6.788;2023-12-20T08:02:52;6.60;99.90
9215;DHT22;4642;51.364;6.788;2023-12-20T08:05:17;6.60;99.90
9215;DHT22;4642;51.364;6.788;2023-12-20T08:07:43;6.60;99.90
9215;DHT22;4642;51.364;6.788;2023-12-20T08:10:08;6.60;99.90
9215;DHT22;4642;51.364;6.788;2023-12-20T08:12:34;6.70;99.90
9215;DHT22;4642;51.364;6.788;2023-12-20T08:15:01;6.80;99.90
9215;DHT22;4642;51.364;6.788;2023-12-20T08:17:26;6.80;99.90
9215;DHT22;4642;51.364;6.788;2023-12-20T08:19:52;6.80;99.90
9215;DHT22;4642;51.364;6.788;2023-12-20T08:22:17;6.80;99.90
9215;DHT22;4642;51.364;6.788;2023-12-20T08:24:43;6.90;99.90
9215;DHT22;4642;51.364;6.788;2023-12-20T08:27:08;6.90;99.90
9215;DHT22;4642;51.364;6.788;2023-12-20T08:29:35;6.90;99.90
9215;DHT22;4642;51.364;6.788;2023-12-20T08:32:01;6.90;99.90
9215;DHT22;4642;51.364;6.788;2023-12-20T08:34:26;6.90;99.90
9215;DHT22;4642;51.364;6.788;2023-12-20T08:36:52;6.90;99.90
9215;DHT22;4642;51.364;6.788;2023-12-20T08:39:17;6.90;99.90
9215;DHT22;4642;51.364;6.788;2023-12-20T08:41:43;7.00;99.90
9215;DHT22;4642;51.364;6.788;2023-12-20T08:44:09;7.00;99.90
9215;DHT22;4642;51.364;6.788;2023-12-20T08:46:35;6.90;99.90
9215;DHT22;4642;51.364;6.788;2023-12-20T08:49:01;6.90;99.90
9215;DHT22;4642;51.364;6.788;2023-12-20T08:51:26;7.00;99.90
9215;DHT22;4642;51.364;6.788;2023-12-20T08:53:53;6.90;99.90
9215;DHT22;4642;51.364;6.788;2023-12-20T08:56:18;6.90;99.90
9215;DHT22;4642;51.364;6.788;2023-12-20T08:58:48;6.90;99.90
9215;DHT22;4642;51.364;6.788;2023-12-20T09:01:14;6.90;99.90
9215;DHT22;4642;51.364;6.788;2023-12-20T09:03:40;6.90;99.90
9215;DHT22;4642;51.364;6.788;2023-12-20T09:06:06;6.90;99.90
9215;DHT22;4642;51.364;6.788;2023-12-20T09:08:31;6.90;99.90
9215;DHT22;4642;51.364;6.788;2023-12-20T09:10:57;6.90;99.90
9215;DHT22;4642;51.364;6.788;2023-12-20T09:13:22;7.00;99.90
9215;DHT22;4642;51.364;6.788;2023-12-20T09:15:54;7.00;99.90
9215;DHT22;4642;51.364;6.788;2023-12-20T09:18:20;7.00;99.90
9215;DHT22;4642;51.364;6.788;2023-12-20T09:20:45;7.00;99.90
9215;DHT22;4642;51.364;6.788;2023-12-20T09:23:11;7.00;99.90
9215;DHT22;4642;51.364;6.788;2023-12-20T09:25:37;7.00;99.90
9215;DHT22;4642;51.364;6.788;2023-12-20T09:28:02;7.00;99.90
9215;DHT22;4642;51.364;6.788;2023-12-20T09:30:28;7.00;99.90
9215;DHT22;4642;51.364;6.788;2023-12-20T09:32:54;7.00;99.90
9215;DHT22;4642;51.364;6.788;2023-12-20T09:35:20;7.00;99.90
9215;DHT22;4642;51.364;6.788;2023-12-20T09:37:46;7.00;99.90
9215;DHT22;4642;51.364;6.788;2023-12-20T09:40:13;7.00;99.90
9215;DHT22;4642;51.364;6.788;2023-12-20T09:42:48;7.00;99.90
9215;DHT22;4642;51.364;6.788;2023-12-20T09:45:20;7.00;99.90
9215;DHT22;4642;51.364;6.788;2023-12-20T09:47:47;7.10;99.90
9215;DHT22;4642;51.364;6.788;2023-12-20T09:50:13;7.10;99.90
9215;DHT22;4642;51.364;6.788;2023-12-20T09:52:39;7.10;99.90
9215;DHT22;4642;51.364;6.788;2023-12-20T09:55:06;7.10;99.90
9215;DHT22;4642;51.364;6.788;2023-12-20T09:57:33;7.10;99.90
9215;DHT22;4642;51.364;6.788;2023-12-20T09:59:58;7.10;99.90
9215;DHT22;4642;51.364;6.788;2023-12-20T10:02:25;7.10;99.90
9215;DHT22;4642;51.364;6.788;2023-12-20T10:04:55;7.10;99.90
9215;DHT22;4642;51.364;6.788;2023-12-20T10:07:20;7.10;99.90
9215;DHT22;4642;51.364;6.788;2023-12-20T10:09:47;7.10;99.90
9215;DHT22;4642;51.364;6.788;2023-12-20T10:12:13;7.10;99.90
9215;DHT22;4642;51.364;6.788;2023-12-20T10:14:39;7.10;99.90
9215;DHT22;4642;51.364;6.788;2023-12-20T10:17:05;7.10;99.90
9215;DHT22;4642;51.364;6.788;2023-12-20T10:19:32;7.10;99.90
9215;DHT22;4642;51.364;6.788;2023-12-20T10:21:59;7.20;99.90
9215;DHT22;4642;51.364;6.788;2023-12-20T10:24:24;7.20;99.90
9215;DHT22;4642;51.364;6.788;2023-12-20T10:27:04;7.20;99.90
9215;DHT22;4642;51.364;6.788;2023-12-20T10:29:34;7.20;99.90
9215;DHT22;4642;51.364;6.788;2023-12-20T10:32:26;7.20;99.90
9215;DHT22;4642;51.364;6.788;2023-12-20T10:34:54;7.20;99.90
9215;DHT22;4642;51.364;6.788;2023-12-20T10:37:19;7.30;99.90
9215;DHT22;4642;51.364;6.788;2023-12-20T10:39:53;7.30;99.90
9215;DHT22;4642;51.364;6.788;2023-12-20T10:42:22;7.30;99.90
9215;DHT22;4642;51.364;6.788;2023-12-20T10:44:49;7.30;99.90
9215;DHT22;4642;51.364;6.788;2023-12-20T10:47:15;7.30;99.90
9215;DHT22;4642;51.364;6.788;2023-12-20T10:49:42;7.30;99.90
9215;DHT22;4642;51.364;6.788;2023-12-20T10:52:09;7.30;99.90
9215;DHT22;4642;51.364;6.788;2023-12-20T10:54:34;7.30;99.90
9215;DHT22;4642;51.364;6.788;2023-12-20T10:57:00;7.30;99.90
9215;DHT22;4642;51.364;6.788;2023-12-20T10:59:29;7.30;99.90
9215;DHT22;4642;51.364;6.788;2023-12-20T11:01:57;7.30;99.90
9215;DHT22;4642;51.364;6.788;2023-12-20T11:04:31;7.30;99.90
9215;DHT22;4642;51.364;6.788;2023-12-20T11:10:10;7.40;99.90
9215;DHT22;4642;51.364;6.788;2023-12-20T11:12:46;7.40;99.90
9215;DHT22;4642;51.364;6.788;2023-12-20T11:15:13;7.40;99.90
9215;DHT22;4642;51.364;6.788;2023-12-20T11:17:39;7.40;99.90
9215;DHT22;4642;51.364;6.788;2023-12-20T11:20:09;7.40;99.90
9215;DHT22;4642;51.364;6.788;2023-12-20T11:22:36;7.40;99.90
9215;DHT22;4642;51.364;6.788;2023-12-20T11:25:05;7.40;99.90
9215;DHT22;4642;51.364;6.788;2023-12-20T11:27:32;7.40;99.90
9215;DHT22;4642;51.364;6.788;2023-12-20T11:29:58;7.50;99.90
9215;DHT22;4642;51.364;6.788;2023-12-20T11:34:51;7.50;99.90
9215;DHT22;4642;51.364;6.788;2023-12-20T11:37:16;7.50;99.90
9215;DHT22;4642;51.364;6.788;2023-12-20T11:39:44;7.50;99.90
9215;DHT22;4642;51.364;6.788;2023-12-20T11:42:10;7.60;99.90
9215;DHT22;4642;51.364;6.788;2023-12-20T11:44:36;7.50;99.90
9215;DHT22;4642;51.364;6.788;2023-12-20T11:47:02;7.50;99.90
9215;DHT22;4642;51.364;6.788;2023-12-20T11:49:28;7.60;99.90
9215;DHT22;4642;51.364;6.788;2023-12-20T11:51:56;7.60;99.90
9215;DHT22;4642;51.364;6.788;2023-12-20T11:54:22;7.50;99.90
9215;DHT22;4642;51.364;6.788;2023-12-20T11:56:48;7.60;99.90
9215;DHT22;4642;51.364;6.788;2023-12-20T11:59:14;7.60;99.90
9215;DHT22;4642;51.364;6.788;2023-12-20T12:01:40;7.50;99.90
9215;DHT22;4642;51.364;6.788;2023-12-20T12:04:12;7.60;99.90
9215;DHT22;4642;51.364;6.788;2023-12-20T12:06:38;7.50;99.90
9215;DHT22;4642;51.364;6.788;2023-12-20T12:09:04;7.50;99.90
9215;DHT22;4642;51.364;6.788;2023-12-20T12:11:30;7.50;99.90
9215;DHT22;4642;51.364;6.788;2023-12-20T12:13:55;7.50;99.90
9215;DHT22;4642;51.364;6.788;2023-12-20T12:16:21;7.50;99.90
9215;DHT22;4642;51.364;6.788;2023-12-20T12:18:55;7.50;99.90
9215;DHT22;4642;51.364;6.788;2023-12-20T12:21:21;7.50;99.90
9215;DHT22;4642;51.364;6.788;2023-12-20T12:23:46;7.50;99.90
9215;DHT22;4642;51.364;6.788;2023-12-20T12:26:12;7.40;99.90
9215;DHT22;4642;51.364;6.788;2023-12-20T12:28:40;7.40;99.90
9215;DHT22;4642;51.364;6.788;2023-12-20T12:31:07;7.40;99.90
9215;DHT22;4642;51.364;6.788;2023-12-20T12:33:33;7.40;99.90
9215;DHT22;4642;51.364;6.788;2023-12-20T12:36:02;7.40;99.90
9215;DHT22;4642;51.364;6.788;2023-12-20T12:38:30;7.40;99.90
9215;DHT22;4642;51.364;6.788;2023-12-20T12:40:55;7.40;99.90
9215;DHT22;4642;51.364;6.788;2023-12-20T12:43:21;7.50;99.90
9215;DHT22;4642;51.364;6.788;2023-12-20T12:45:48;7.50;99.90
9215;DHT22;4642;51.364;6.788;2023-12-20T12:48:14;7.40;99.90
9215;DHT22;4642;51.364;6.788;2023-12-20T12:50:40;7.50;99.90
9215;DHT22;4642;51.364;6.788;2023-12-20T12:53:05;7.50;99.90
9215;DHT22;4642;51.364;6.788;2023-12-20T12:55:31;7.40;99.90
9215;DHT22;4642;51.364;6.788;2023-12-20T12:57:56;7.40;99.90
9215;DHT22;4642;51.364;6.788;2023-12-20T13:00:22;7.40;99.90
9215;DHT22;4642;51.364;6.788;2023-12-20T13:02:48;7.40;99.90
9215;DHT22;4642;51.364;6.788;2023-12-20T13:05:13;7.40;99.90
9215;DHT22;4642;51.364;6.788;2023-12-20T13:07:39;7.50;99.90
9215;DHT22;4642;51.364;6.788;2023-12-20T13:10:05;7.40;99.90
9215;DHT22;4642;51.364;6.788;2023-12-20T13:12:31;7.40;99.90
9215;DHT22;4642;51.364;6.788;2023-12-20T13:14:57;7.40;99.90
9215;DHT22;4642;51.364;6.788;2023-12-20T13:17:23;7.30;99.90
9215;DHT22;4642;51.364;6.788;2023-12-20T13:19:48;7.30;99.90
9215;DHT22;4642;51.364;6.788;2023-12-20T13:22:15;7.30;99.90
9215;DHT22;4642;51.364;6.788;2023-12-20T13:24:40;7.30;99.90
9215;DHT22;4642;51.364;6.788;2023-12-20T13:27:06;7.30;99.90
9215;DHT22;4642;51.364;6.788;2023-12-20T13:29:31;6.30;99.90
9215;DHT22;4642;51.364;6.788;2023-12-20T13:31:57;7.20;99.90
9215;DHT22;4642;51.364;6.788;2023-12-20T13:34:23;7.20;99.90
9215;DHT22;4642;51.364;6.788;2023-12-20T13:36:49;7.20;99.90
9215;DHT22;4642;51.364;6.788;2023-12-20T13:39:16;7.20;99.90
9215;DHT22;4642;51.364;6.788;2023-12-20T13:41:42;7.20;99.90
9215;DHT22;4642;51.364;6.788;2023-12-20T13:44:07;7.10;99.90
9215;DHT22;4642;51.364;6.788;2023-12-20T13:46:33;7.10;99.90
9215;DHT22;4642;51.364;6.788;2023-12-20T13:48:59;7.10;99.90
9215;DHT22;4642;51.364;6.788;2023-12-20T13:51:24;7.10;99.90
9215;DHT22;4642;51.364;6.788;2023-12-20T13:53:50;7.10;99.90
9215;DHT22;4642;51.364;6.788;2023-12-20T13:56:16;7.10;99.90
9215;DHT22;4642;51.364;6.788;2023-12-20T13:58:41;7.10;99.90
9215;DHT22;4642;51.364;6.788;2023-12-20T14:01:08;7.10;99.90
9215;DHT22;4642;51.364;6.788;2023-12-20T14:03:34;7.10;99.90
9215;DHT22;4642;51.364;6.788;2023-12-20T14:06:00;7.10;99.90
9215;DHT22;4642;51.364;6.788;2023-12-20T14:08:27;7.10;99.90
9215;DHT22;4642;51.364;6.788;2023-12-20T14:10:52;7.10;99.90
9215;DHT22;4642;51.364;6.788;2023-12-20T14:13:18;7.10;99.90
9215;DHT22;4642;51.364;6.788;2023-12-20T14:15:44;7.20;99.90
9215;DHT22;4642;51.364;6.788;2023-12-20T14:18:09;7.20;99.90
9215;DHT22;4642;51.364;6.788;2023-12-20T14:20:35;7.10;99.90
9215;DHT22;4642;51.364;6.788;2023-12-20T14:23:04;7.20;99.90
9215;DHT22;4642;51.364;6.788;2023-12-20T14:25:30;7.20;99.90
9215;DHT22;4642;51.364;6.788;2023-12-20T14:27:56;7.20;99.90
9215;DHT22;4642;51.364;6.788;2023-12-20T14:30:22;7.10;99.90
9215;DHT22;4642;51.364;6.788;2023-12-20T14:32:47;7.20;99.90
9215;DHT22;4642;51.364;6.788;2023-12-20T14:35:14;7.20;99.90
9215;DHT22;4642;51.364;6.788;2023-12-20T14:37:39;7.20;99.90
9215;DHT22;4642;51.364;6.788;2023-12-20T14:40:09;7.30;99.90
9215;DHT22;4642;51.364;6.788;2023-12-20T14:42:42;7.30;99.90
9215;DHT22;4642;51.364;6.788;2023-12-20T14:45:09;7.30;99.90
9215;DHT22;4642;51.364;6.788;2023-12-20T14:47:34;7.30;99.90
9215;DHT22;4642;51.364;6.788;2023-12-20T14:50:05;7.40;99.90
9215;DHT22;4642;51.364;6.788;2023-12-20T14:52:32;7.40;99.90
9215;DHT22;4642;51.364;6.788;2023-12-20T14:54:59;7.40;99.90
9215;DHT22;4642;51.364;6.788;2023-12-20T14:57:25;7.40;99.90
9215;DHT22;4642;51.364;6.788;2023-12-20T14:59:51;7.40;99.90
9215;DHT22;4642;51.364;6.788;2023-12-20T15:02:17;7.40;99.90
9215;DHT22;4642;51.364;6.788;2023-12-20T15:04:43;7.40;99.90
9215;DHT22;4642;51.364;6.788;2023-12-20T15:07:08;7.50;99.90
9215;DHT22;4642;51.364;6.788;2023-12-20T15:09:34;7.50;99.90
9215;DHT22;4642;51.364;6.788;2023-12-20T15:11:59;7.50;99.90
9215;DHT22;4642;51.364;6.788;2023-12-20T15:14:26;7.50;99.90
9215;DHT22;4642;51.364;6.788;2023-12-20T15:16:51;7.50;99.90
9215;DHT22;4642;51.364;6.788;2023-12-20T15:19:17;7.60;99.90
9215;DHT22;4642;51.364;6.788;2023-12-20T15:21:42;7.60;99.90
9215;DHT22;4642;51.364;6.788;2023-12-20T15:24:11;7.70;99.90
9215;DHT22;4642;51.364;6.788;2023-12-20T15:26:42;7.60;99.90
9215;DHT22;4642;51.364;6.788;2023-12-20T15:29:08;7.70;99.90
9215;DHT22;4642;51.364;6.788;2023-12-20T15:31:36;7.70;99.90
9215;DHT22;4642;51.364;6.788;2023-12-20T15:34:02;7.70;99.90
9215;DHT22;4642;51.364;6.788;2023-12-20T15:36:28;7.70;99.90
9215;DHT22;4642;51.364;6.788;2023-12-20T15:38:53;7.70;99.90
9215;DHT22;4642;51.364;6.788;2023-12-20T15:41:22;7.70;99.90
9215;DHT22;4642;51.364;6.788;2023-12-20T15:43:49;7.70;99.90
9215;DHT22;4642;51.364;6.788;2023-12-20T15:46:14;7.70;99.90
9215;DHT22;4642;51.364;6.788;2023-12-20T15:48:40;7.70;99.90
9215;DHT22;4642;51.364;6.788;2023-12-20T15:51:07;7.70;99.90
9215;DHT22;4642;51.364;6.788;2023-12-20T15:53:34;7.80;99.90
9215;DHT22;4642;51.364;6.788;2023-12-20T15:56:00;7.70;99.90
9215;DHT22;4642;51.364;6.788;2023-12-20T15:58:25;7.80;99.90
9215;DHT22;4642;51.364;6.788;2023-12-20T16:00:52;7.70;99.90
9215;DHT22;4642;51.364;6.788;2023-12-20T16:03:17;7.80;99.90
9215;DHT22;4642;51.364;6.788;2023-12-20T16:05:43;7.70;99.90
9215;DHT22;4642;51.364;6.788;2023-12-20T16:08:09;7.70;99.90
9215;DHT22;4642;51.364;6.788;2023-12-20T16:10:34;7.70;99.90
9215;DHT22;4642;51.364;6.788;2023-12-20T16:13:00;7.80;99.90
9215;DHT22;4642;51.364;6.788;2023-12-20T16:15:25;7.70;99.90